Time;durP1;ratioP1;P1;durP2;ratioP2;P2;SDS_P1;SDS_P2;PMS_P1;PMS_P2;Temp;Humidity;BMP_temperature;BMP_pressure;BME280_temperature;BME280_humidity;BME280_pressure;Samples;Min_cycle;Max_cycle;Signal;HPM_P1;HPM_P2
2023/12/06 00:00:09;;;;;;;91.55;45.30;;;1.30;99.90;;;;;;2088098;28;20029;-73
2023/12/06 00:01:10;;;;;;;91.20;45.20;;;1.30;99.90;;;;;;2090722;28;20028;-73
2023/12/06 00:02:12;;;;;;;88.22;44.72;;;1.30;99.90;;;;;;2091185;28;20034;-73
2023/12/06 00:03:13;;;;;;;89.78;45.42;;;1.30;99.90;;;;;;2085878;28;20525;-73
2023/12/06 00:04:13;;;;;;;87.63;44.20;;;1.30;99.90;;;;;;2076829;28;20022;-73
2023/12/06 00:05:14;;;;;;;87.65;44.03;;;1.30;99.90;;;;;;2080820;28;20013;-73
2023/12/06 00:06:14;;;;;;;89.40;44.72;;;1.30;99.90;;;;;;2090573;28;20025;-76
2023/12/06 00:07:15;;;;;;;91.45;45.97;;;1.30;99.90;;;;;;2083631;28;20116;-74
2023/12/06 00:08:16;;;;;;;90.03;45.55;;;1.30;99.90;;;;;;2092228;28;20035;-74
2023/12/06 00:09:17;;;;;;;93.72;46.58;;;1.30;99.90;;;;;;2078415;28;20021;-74
2023/12/06 00:10:17;;;;;;;86.13;44.28;;;1.30;99.90;;;;;;2084540;28;20052;-73
2023/12/06 00:11:18;;;;;;;94.00;46.65;;;1.30;99.90;;;;;;2083504;28;20013;-73
2023/12/06 00:12:19;;;;;;;94.18;46.92;;;1.30;99.90;;;;;;2083508;28;20040;-72
2023/12/06 00:13:19;;;;;;;90.20;45.22;;;1.30;99.90;;;;;;2088535;28;20035;-72
2023/12/06 00:14:20;;;;;;;93.65;46.33;;;1.30;99.90;;;;;;2093900;28;20402;-71
2023/12/06 00:15:20;;;;;;;95.60;47.50;;;1.30;99.90;;;;;;2084391;28;20602;-72
2023/12/06 00:16:21;;;;;;;96.70;47.42;;;1.30;99.90;;;;;;2083724;28;20033;-72
2023/12/06 00:17:22;;;;;;;93.28;46.97;;;1.20;99.90;;;;;;2083713;28;20040;-72
2023/12/06 00:18:22;;;;;;;92.13;46.03;;;1.30;99.90;;;;;;2092315;28;20040;-73
2023/12/06 00:19:23;;;;;;;94.28;47.72;;;1.20;99.90;;;;;;2088205;28;20517;-72
2023/12/06 00:20:24;;;;;;;96.45;47.70;;;1.20;99.90;;;;;;2089320;28;20106;-72
2023/12/06 00:21:24;;;;;;;94.80;47.53;;;1.20;99.90;;;;;;2094045;28;20478;-72
2023/12/06 00:22:25;;;;;;;97.00;47.65;;;1.20;99.90;;;;;;2089455;28;20104;-72
2023/12/06 00:23:25;;;;;;;96.47;48.55;;;1.20;99.90;;;;;;2086979;28;20059;-73
2023/12/06 00:24:26;;;;;;;92.45;47.05;;;1.20;99.90;;;;;;2084296;28;20029;-71
2023/12/06 00:25:26;;;;;;;97.68;47.53;;;1.20;99.90;;;;;;2089875;28;20098;-77
2023/12/06 00:26:27;;;;;;;97.53;47.33;;;1.20;99.90;;;;;;2088978;28;20049;-74
2023/12/06 00:27:27;;;;;;;98.30;48.17;;;1.20;99.90;;;;;;2091900;28;20484;-74
2023/12/06 00:28:28;;;;;;;102.20;49.47;;;1.20;99.90;;;;;;2091025;28;20036;-73
2023/12/06 00:29:28;;;;;;;98.82;48.03;;;1.20;99.90;;;;;;2086081;28;20395;-73
2023/12/06 00:30:29;;;;;;;96.25;47.53;;;1.20;99.90;;;;;;2089365;28;20530;-73
2023/12/06 00:31:30;;;;;;;96.22;46.95;;;1.20;99.90;;;;;;2092364;28;20037;-73
2023/12/06 00:32:30;;;;;;;101.10;48.95;;;1.20;99.90;;;;;;2091984;28;20090;-74
2023/12/06 00:33:31;;;;;;;99.35;48.17;;;1.20;99.90;;;;;;2085322;28;20032;-73
2023/12/06 00:34:31;;;;;;;100.30;48.55;;;1.20;99.90;;;;;;2087285;28;20036;-75
2023/12/06 00:35:32;;;;;;;103.82;49.53;;;1.20;99.90;;;;;;2091408;28;20029;-75
2023/12/06 00:36:32;;;;;;;98.85;49.08;;;1.10;99.90;;;;;;2084320;28;20075;-75
2023/12/06 00:37:33;;;;;;;100.45;49.28;;;1.10;99.90;;;;;;2091453;28;20544;-75
2023/12/06 00:38:33;;;;;;;103.38;49.85;;;1.10;99.90;;;;;;2088090;28;20498;-74
2023/12/06 00:39:34;;;;;;;100.85;48.72;;;1.10;99.90;;;;;;2092017;28;20186;-75
2023/12/06 00:40:34;;;;;;;103.53;50.55;;;1.10;99.90;;;;;;2092326;28;20093;-75
2023/12/06 00:41:35;;;;;;;102.47;49.92;;;1.10;99.90;;;;;;2091940;28;20039;-75
2023/12/06 00:42:36;;;;;;;104.72;49.97;;;1.10;99.90;;;;;;2081736;28;20067;-75
2023/12/06 00:43:36;;;;;;;104.55;50.63;;;1.10;99.90;;;;;;2077832;28;20028;-75
2023/12/06 00:44:37;;;;;;;100.32;49.08;;;1.10;99.90;;;;;;2089121;28;20058;-75
2023/12/06 00:45:37;;;;;;;106.75;51.72;;;1.10;99.90;;;;;;2094508;28;20031;-75
2023/12/06 00:46:38;;;;;;;106.47;51.08;;;1.10;99.90;;;;;;2093274;28;20237;-74
2023/12/06 00:47:38;;;;;;;105.80;51.20;;;1.10;99.90;;;;;;2081310;28;20024;-74
2023/12/06 00:48:39;;;;;;;110.57;53.15;;;1.10;99.90;;;;;;2089068;28;20545;-74
2023/12/06 00:49:39;;;;;;;107.82;52.75;;;1.10;99.90;;;;;;2095207;28;20054;-73
2023/12/06 00:50:40;;;;;;;103.63;50.42;;;1.10;99.90;;;;;;2095001;28;20031;-73
2023/12/06 00:51:41;;;;;;;107.25;51.92;;;1.00;99.90;;;;;;2085654;28;20032;-73
2023/12/06 00:52:41;;;;;;;102.30;49.97;;;1.00;99.90;;;;;;2085179;28;20082;-73
2023/12/06 00:53:42;;;;;;;108.50;52.13;;;1.00;99.90;;;;;;2077581;28;20025;-73
2023/12/06 00:54:42;;;;;;;106.43;52.08;;;1.00;99.90;;;;;;2080729;28;20083;-74
2023/12/06 00:55:43;;;;;;;112.28;53.38;;;1.00;99.90;;;;;;2094883;28;20020;-73
2023/12/06 00:56:43;;;;;;;106.35;51.67;;;1.00;99.90;;;;;;2093838;28;20430;-74
2023/12/06 00:57:44;;;;;;;108.25;51.60;;;1.00;99.90;;;;;;2092370;28;20024;-74
2023/12/06 00:58:44;;;;;;;110.40;51.95;;;0.90;99.90;;;;;;2094595;28;20023;-74
2023/12/06 00:59:45;;;;;;;108.50;52.25;;;0.90;99.90;;;;;;2080594;28;20029;-73
2023/12/06 01:00:46;;;;;;;109.40;53.13;;;0.90;99.90;;;;;;2086397;28;20260;-74
2023/12/06 01:01:46;;;;;;;111.90;53.30;;;0.90;99.90;;;;;;2094878;28;20434;-74
2023/12/06 01:02:47;;;;;;;113.95;53.35;;;0.90;99.90;;;;;;2093322;28;20020;-73
2023/12/06 01:03:47;;;;;;;111.13;53.45;;;0.90;99.90;;;;;;2094187;28;20036;-74
2023/12/06 01:04:50;;;;;;;115.63;55.22;;;0.90;99.90;;;;;;2094580;28;20020;-73
2023/12/06 01:05:53;;;;;;;114.18;54.28;;;0.80;99.90;;;;;;2096375;28;20493;-74
2023/12/06 01:06:53;;;;;;;112.53;53.38;;;0.80;99.90;;;;;;2093237;28;20024;-73
2023/12/06 01:07:54;;;;;;;112.13;53.33;;;0.80;99.90;;;;;;2092701;28;20501;-74
2023/12/06 01:08:54;;;;;;;119.10;54.90;;;0.80;99.90;;;;;;2094772;28;20032;-73
2023/12/06 01:09:55;;;;;;;115.50;53.63;;;0.80;99.90;;;;;;2093446;28;20039;-73
2023/12/06 01:10:55;;;;;;;116.07;54.20;;;0.80;99.90;;;;;;2083555;28;20043;-73
2023/12/06 01:11:57;;;;;;;113.63;54.08;;;0.80;99.90;;;;;;2091891;28;20090;-73
2023/12/06 01:12:58;;;;;;;118.75;54.08;;;0.80;99.90;;;;;;2094751;28;20051;-73
2023/12/06 01:13:58;;;;;;;113.95;54.30;;;0.70;99.90;;;;;;2097282;28;20058;-74
2023/12/06 01:14:59;;;;;;;115.93;55.30;;;0.70;99.90;;;;;;2094191;28;20016;-74
2023/12/06 01:15:59;;;;;;;117.95;54.92;;;0.70;99.90;;;;;;2092109;28;20033;-74
2023/12/06 01:17:00;;;;;;;114.40;55.22;;;0.70;99.90;;;;;;2096727;28;20460;-73
2023/12/06 01:18:00;;;;;;;120.68;56.40;;;0.70;99.90;;;;;;2092497;28;20194;-73
2023/12/06 01:19:01;;;;;;;123.18;56.50;;;0.60;99.90;;;;;;2092223;28;20028;-74
2023/12/06 01:20:03;;;;;;;120.78;55.25;;;0.60;99.90;;;;;;2093727;28;20037;-73
2023/12/06 01:21:03;;;;;;;117.72;55.47;;;0.60;99.90;;;;;;2093933;28;20041;-73
2023/12/06 01:22:04;;;;;;;120.53;55.83;;;0.60;99.90;;;;;;2097208;28;20040;-74
2023/12/06 01:23:05;;;;;;;114.35;53.95;;;0.60;99.90;;;;;;2091867;28;20017;-73
2023/12/06 01:24:06;;;;;;;119.45;56.28;;;0.60;99.90;;;;;;2096429;28;20090;-75
2023/12/06 01:25:07;;;;;;;115.15;53.67;;;0.60;99.90;;;;;;2088082;28;20443;-75
2023/12/06 01:26:07;;;;;;;119.05;54.72;;;0.60;99.90;;;;;;2095171;28;20031;-74
2023/12/06 01:27:08;;;;;;;118.07;54.10;;;0.60;99.90;;;;;;2094852;28;20036;-75
2023/12/06 01:28:08;;;;;;;117.30;55.28;;;0.60;99.90;;;;;;2095142;28;20323;-74
2023/12/06 01:29:09;;;;;;;120.70;55.58;;;0.60;99.90;;;;;;2095741;28;20348;-74
2023/12/06 01:30:10;;;;;;;117.13;54.92;;;0.60;99.90;;;;;;2093463;28;20036;-75
2023/12/06 01:31:10;;;;;;;117.93;54.55;;;0.60;99.90;;;;;;2092431;28;20331;-74
2023/12/06 01:32:11;;;;;;;116.40;55.03;;;0.60;99.90;;;;;;2092837;28;20077;-75
2023/12/06 01:33:11;;;;;;;114.93;55.33;;;0.60;99.90;;;;;;2092603;28;20032;-74
2023/12/06 01:34:12;;;;;;;117.32;54.08;;;0.60;99.90;;;;;;2093529;28;20114;-75
2023/12/06 01:35:13;;;;;;;114.30;54.35;;;0.60;99.90;;;;;;2093959;28;20466;-75
2023/12/06 01:36:13;;;;;;;115.88;55.47;;;0.60;99.90;;;;;;2092880;28;20025;-73
2023/12/06 01:37:14;;;;;;;111.78;53.42;;;0.60;99.90;;;;;;2092269;28;20320;-73
2023/12/06 01:38:14;;;;;;;113.07;53.42;;;0.60;99.90;;;;;;2084997;28;20051;-74
2023/12/06 01:39:15;;;;;;;113.32;53.10;;;0.60;99.90;;;;;;2096134;28;20024;-73
2023/12/06 01:40:15;;;;;;;111.53;53.92;;;0.60;99.90;;;;;;2095553;28;20097;-73
2023/12/06 01:41:16;;;;;;;116.28;53.95;;;0.60;99.90;;;;;;2089514;28;20414;-73
2023/12/06 01:42:16;;;;;;;112.78;53.90;;;0.60;99.90;;;;;;2088596;28;20104;-74
2023/12/06 01:43:17;;;;;;;109.00;53.47;;;0.60;99.90;;;;;;2089474;28;20025;-74
2023/12/06 01:44:17;;;;;;;108.63;52.17;;;0.60;99.90;;;;;;2083781;28;20395;-73
2023/12/06 01:45:18;;;;;;;116.72;53.10;;;0.60;99.90;;;;;;2088138;28;20029;-73
2023/12/06 01:46:19;;;;;;;108.95;53.40;;;0.60;99.90;;;;;;2082291;28;20068;-73
2023/12/06 01:47:22;;;;;;;106.95;51.58;;;0.70;99.90;;;;;;2089535;28;20029;-73
2023/12/06 01:48:23;;;;;;;114.45;52.80;;;0.70;99.90;;;;;;2096445;28;20043;-73
2023/12/06 01:49:26;;;;;;;110.97;52.53;;;0.70;99.90;;;;;;2089246;28;20032;-73
2023/12/06 01:50:27;;;;;;;108.57;52.40;;;0.70;99.90;;;;;;2087129;28;20036;-73
2023/12/06 01:51:30;;;;;;;111.18;52.28;;;0.70;99.90;;;;;;2096288;28;20405;-73
2023/12/06 01:52:30;;;;;;;111.22;52.15;;;0.70;99.90;;;;;;2097371;28;20036;-74
2023/12/06 01:53:31;;;;;;;107.22;51.83;;;0.70;99.90;;;;;;2094971;28;20025;-74
2023/12/06 01:54:32;;;;;;;104.93;50.63;;;0.70;99.90;;;;;;2096529;28;20039;-74
2023/12/06 01:55:33;;;;;;;110.55;52.95;;;0.70;99.90;;;;;;2096194;28;20032;-74
2023/12/06 01:56:34;;;;;;;107.45;52.03;;;0.70;99.90;;;;;;2087993;28;20025;-74
2023/12/06 01:57:36;;;;;;;103.47;51.40;;;0.70;99.90;;;;;;2087818;28;20032;-73
2023/12/06 01:58:38;;;;;;;105.28;51.45;;;0.70;99.90;;;;;;2080677;28;20088;-73
2023/12/06 01:59:40;;;;;;;105.53;50.92;;;0.70;99.90;;;;;;2086756;28;20578;-73
2023/12/06 02:00:40;;;;;;;102.38;50.38;;;0.80;99.90;;;;;;2090833;28;20036;-72
2023/12/06 02:01:41;;;;;;;104.15;51.13;;;0.80;99.90;;;;;;2097377;28;20020;-72
2023/12/06 02:02:42;;;;;;;109.40;52.08;;;0.80;99.90;;;;;;2094409;28;20068;-73
2023/12/06 02:03:43;;;;;;;102.68;50.40;;;0.70;99.90;;;;;;2096391;28;20040;-73
2023/12/06 02:04:44;;;;;;;106.28;52.40;;;0.70;99.90;;;;;;2090469;28;20032;-73
2023/12/06 02:05:46;;;;;;;104.30;50.90;;;0.80;99.90;;;;;;2094334;28;20031;-74
2023/12/06 02:06:46;;;;;;;106.68;52.00;;;0.80;99.90;;;;;;2094478;28;20028;-75
2023/12/06 02:07:48;;;;;;;107.25;52.08;;;0.70;99.90;;;;;;2094822;28;20505;-75
2023/12/06 02:08:49;;;;;;;106.25;51.80;;;0.70;99.90;;;;;;2092898;28;20025;-75
2023/12/06 02:09:50;;;;;;;106.88;51.67;;;0.70;99.90;;;;;;2093262;28;20433;-75
2023/12/06 02:10:50;;;;;;;114.65;52.15;;;0.70;99.90;;;;;;2093918;28;20027;-75
2023/12/06 02:11:51;;;;;;;109.43;53.17;;;0.70;99.90;;;;;;2097460;28;20052;-74
2023/12/06 02:12:51;;;;;;;106.47;52.17;;;0.80;99.90;;;;;;2094693;28;20032;-73
2023/12/06 02:13:52;;;;;;;108.00;52.35;;;0.70;99.90;;;;;;2094703;28;20024;-75
2023/12/06 02:14:53;;;;;;;109.95;52.53;;;0.80;99.90;;;;;;2097646;28;20035;-75
2023/12/06 02:15:54;;;;;;;109.18;52.22;;;0.70;99.90;;;;;;2094570;28;20558;-74
2023/12/06 02:16:55;;;;;;;107.45;51.53;;;0.70;99.90;;;;;;2094403;28;20032;-74
2023/12/06 02:17:55;;;;;;;103.82;50.75;;;0.70;99.90;;;;;;2097546;28;20401;-74
2023/12/06 02:18:56;;;;;;;105.70;52.05;;;0.70;99.90;;;;;;2092394;28;20096;-74
2023/12/06 02:19:58;;;;;;;107.72;52.28;;;0.70;99.90;;;;;;2086409;28;20036;-74
2023/12/06 02:20:59;;;;;;;109.78;52.88;;;0.70;99.90;;;;;;2095407;28;20494;-74
2023/12/06 02:22:00;;;;;;;110.63;52.92;;;0.70;99.90;;;;;;2095634;28;20044;-74
2023/12/06 02:23:03;;;;;;;105.30;51.47;;;0.70;99.90;;;;;;2094236;28;20051;-74
2023/12/06 02:24:05;;;;;;;109.15;52.45;;;0.70;99.90;;;;;;2090262;28;20029;-74
2023/12/06 02:25:11;;;;;;;108.28;52.30;;;0.70;99.90;;;;;;2079422;28;20506;-74
2023/12/06 02:26:11;;;;;;;104.30;51.55;;;0.70;99.90;;;;;;2079045;28;20032;-74
2023/12/06 02:27:12;;;;;;;107.78;52.15;;;0.70;99.90;;;;;;2072579;28;20076;-76
2023/12/06 02:28:13;;;;;;;108.72;53.35;;;0.70;99.90;;;;;;2089194;28;20020;-74
2023/12/06 02:29:13;;;;;;;108.68;53.65;;;0.70;99.90;;;;;;2095167;28;20493;-74
2023/12/06 02:30:14;;;;;;;107.72;52.42;;;0.70;99.90;;;;;;2081471;28;20032;-74
2023/12/06 02:31:14;;;;;;;111.57;53.78;;;0.70;99.90;;;;;;2068130;28;20036;-74
2023/12/06 02:32:15;;;;;;;107.95;52.60;;;0.60;99.90;;;;;;2076801;28;20040;-74
2023/12/06 02:33:15;;;;;;;110.68;53.28;;;0.60;99.90;;;;;;2086781;28;20024;-74
2023/12/06 02:34:22;;;;;;;107.78;53.10;;;0.70;99.90;;;;;;2097489;28;20505;-74
2023/12/06 02:35:46;;;;;;;110.40;53.95;;;0.70;99.90;;;;;;2095384;28;20138;-74
2023/12/06 02:36:50;;;;;;;112.85;52.90;;;0.60;99.90;;;;;;2093581;28;20044;-74
2023/12/06 02:37:54;;;;;;;112.38;53.55;;;0.60;99.90;;;;;;2087839;28;20561;-74
2023/12/06 02:38:54;;;;;;;112.22;53.30;;;0.60;99.90;;;;;;2086307;28;20027;-74
2023/12/06 02:39:56;;;;;;;112.88;54.25;;;0.60;99.90;;;;;;2089043;28;20031;-74
2023/12/06 02:41:00;;;;;;;110.68;52.85;;;0.60;99.90;;;;;;2096941;28;20101;-89
2023/12/06 02:42:01;;;;;;;111.53;54.47;;;0.60;99.90;;;;;;2100894;28;20446;-88
2023/12/06 02:43:01;;;;;;;113.63;54.00;;;0.60;99.90;;;;;;2090941;28;20033;-91
2023/12/06 02:44:02;;;;;;;112.53;53.83;;;0.60;99.90;;;;;;2088956;28;20056;-85
2023/12/06 02:45:03;;;;;;;113.60;53.83;;;0.60;99.90;;;;;;2092233;28;20044;-87
2023/12/06 02:46:06;;;;;;;119.32;54.30;;;0.60;99.90;;;;;;2100689;28;20037;-88
2023/12/06 02:47:07;;;;;;;114.22;54.92;;;0.50;99.90;;;;;;2097914;28;20058;-85
2023/12/06 02:48:08;;;;;;;111.80;53.13;;;0.50;99.90;;;;;;2100247;28;20024;-87
2023/12/06 02:49:08;;;;;;;111.88;53.60;;;0.50;99.90;;;;;;2098819;28;20020;-86
2023/12/06 02:50:09;;;;;;;111.53;54.95;;;0.50;99.90;;;;;;2100400;28;20073;-90
2023/12/06 02:51:09;;;;;;;118.65;54.75;;;0.50;99.90;;;;;;2100860;28;20091;-87
2023/12/06 02:52:12;;;;;;;109.88;52.58;;;0.50;99.90;;;;;;2092539;28;20024;-87
2023/12/06 02:53:13;;;;;;;119.03;54.97;;;0.50;99.90;;;;;;2092460;28;20063;-86
2023/12/06 02:54:13;;;;;;;117.38;56.20;;;0.50;99.90;;;;;;2090051;28;20047;-84
2023/12/06 02:55:14;;;;;;;116.32;54.58;;;0.50;99.90;;;;;;2088875;28;20155;-86
2023/12/06 02:56:15;;;;;;;111.78;53.88;;;0.50;99.90;;;;;;2099275;28;20503;-87
2023/12/06 02:57:15;;;;;;;114.35;53.95;;;0.50;99.90;;;;;;2097362;28;20508;-75
2023/12/06 02:58:15;;;;;;;113.63;53.17;;;0.50;99.90;;;;;;2095149;28;20020;-73
2023/12/06 02:59:16;;;;;;;115.55;54.05;;;0.50;99.90;;;;;;2094646;28;20041;-77
2023/12/06 03:00:17;;;;;;;114.25;54.72;;;0.50;99.90;;;;;;2097669;28;20024;-87
2023/12/06 03:01:18;;;;;;;114.03;54.05;;;0.50;99.90;;;;;;2094784;28;20058;-81
2023/12/06 03:02:18;;;;;;;111.40;53.38;;;0.50;99.90;;;;;;2095610;28;20035;-82
2023/12/06 03:03:19;;;;;;;113.13;53.70;;;0.50;99.90;;;;;;2097592;28;20432;-82
2023/12/06 03:04:19;;;;;;;116.35;54.25;;;0.50;99.90;;;;;;2096066;28;20539;-82
2023/12/06 03:05:20;;;;;;;119.00;54.65;;;0.50;99.90;;;;;;2096359;28;20028;-83
2023/12/06 03:06:20;;;;;;;113.57;54.20;;;0.50;99.90;;;;;;2099150;28;20075;-83
2023/12/06 03:07:21;;;;;;;113.22;52.75;;;0.50;99.90;;;;;;2092750;28;20020;-82
2023/12/06 03:08:21;;;;;;;111.85;53.42;;;0.40;99.90;;;;;;2095877;28;20265;-83
2023/12/06 03:09:22;;;;;;;114.22;53.30;;;0.50;99.90;;;;;;2091933;28;20032;-83
2023/12/06 03:10:22;;;;;;;109.68;53.47;;;0.40;99.90;;;;;;2093445;28;20044;-83
2023/12/06 03:11:23;;;;;;;111.57;52.65;;;0.40;99.90;;;;;;2090245;28;20081;-83
2023/12/06 03:12:23;;;;;;;109.65;51.20;;;0.40;99.90;;;;;;2080806;28;20104;-81
2023/12/06 03:13:24;;;;;;;114.25;52.78;;;0.40;99.90;;;;;;2078047;28;20071;-82
2023/12/06 03:14:24;;;;;;;109.07;52.40;;;0.40;99.90;;;;;;2081296;28;20599;-84
2023/12/06 03:15:25;;;;;;;111.38;53.42;;;0.40;99.90;;;;;;2081362;28;20067;-83
2023/12/06 03:16:25;;;;;;;109.50;51.92;;;0.40;99.90;;;;;;2094705;28;20122;-84
2023/12/06 03:17:26;;;;;;;108.68;51.88;;;0.40;99.90;;;;;;2095335;28;20024;-83
2023/12/06 03:18:27;;;;;;;112.93;51.22;;;0.40;99.90;;;;;;2095630;28;20128;-84
2023/12/06 03:19:27;;;;;;;110.72;51.63;;;0.40;99.90;;;;;;2092867;28;20357;-83
2023/12/06 03:20:28;;;;;;;109.40;51.97;;;0.40;99.90;;;;;;2098170;28;20381;-82
2023/12/06 03:21:28;;;;;;;107.38;52.55;;;0.40;99.90;;;;;;2094548;28;20490;-83
2023/12/06 03:22:29;;;;;;;110.45;51.58;;;0.40;99.90;;;;;;2092290;28;20159;-83
2023/12/06 03:23:29;;;;;;;108.18;51.55;;;0.40;99.90;;;;;;2097762;28;20035;-83
2023/12/06 03:24:30;;;;;;;105.72;51.17;;;0.40;99.90;;;;;;2094713;28;20032;-84
2023/12/06 03:25:30;;;;;;;105.35;51.65;;;0.40;99.90;;;;;;2091946;28;20036;-84
2023/12/06 03:26:31;;;;;;;104.78;50.42;;;0.40;99.90;;;;;;2095948;28;20075;-83
2023/12/06 03:27:31;;;;;;;107.43;50.55;;;0.40;99.90;;;;;;2086685;28;20463;-83
2023/12/06 03:28:32;;;;;;;103.00;49.95;;;0.50;99.90;;;;;;2091190;28;20062;-83
2023/12/06 03:29:32;;;;;;;107.53;51.85;;;0.50;99.90;;;;;;2096650;28;20581;-82
2023/12/06 03:30:33;;;;;;;103.10;49.65;;;0.50;99.90;;;;;;2088549;28;20041;-84
2023/12/06 03:31:33;;;;;;;105.22;51.05;;;0.50;99.90;;;;;;2089460;28;20083;-83
2023/12/06 03:32:34;;;;;;;107.40;50.50;;;0.50;99.90;;;;;;2089373;28;20613;-84
2023/12/06 03:33:35;;;;;;;101.85;49.15;;;0.50;99.90;;;;;;2093653;28;20036;-84
2023/12/06 03:34:35;;;;;;;101.47;49.28;;;0.50;99.90;;;;;;2087912;28;20102;-83
2023/12/06 03:35:36;;;;;;;107.43;51.67;;;0.50;99.90;;;;;;2090574;28;20571;-82
2023/12/06 03:36:36;;;;;;;103.82;50.80;;;0.50;99.90;;;;;;2094189;28;20118;-82
2023/12/06 03:37:37;;;;;;;104.03;49.70;;;0.50;99.90;;;;;;2096198;28;20033;-82
2023/12/06 03:38:37;;;;;;;105.45;51.55;;;0.50;99.90;;;;;;2095873;28;20043;-83
2023/12/06 03:39:38;;;;;;;108.63;51.88;;;0.50;99.90;;;;;;2094001;28;20025;-83
2023/12/06 03:40:39;;;;;;;108.43;51.80;;;0.50;99.90;;;;;;2099789;28;20032;-73
2023/12/06 03:41:39;;;;;;;107.15;52.03;;;0.50;99.90;;;;;;2095073;28;20031;-72
2023/12/06 03:42:40;;;;;;;107.63;51.85;;;0.60;99.90;;;;;;2095308;28;20041;-73
2023/12/06 03:43:40;;;;;;;101.38;49.55;;;0.50;99.90;;;;;;2090495;28;20081;-72
2023/12/06 03:44:41;;;;;;;106.57;51.15;;;0.50;99.90;;;;;;2085439;28;20025;-72
2023/12/06 03:45:43;;;;;;;104.97;50.50;;;0.50;99.90;;;;;;2094575;28;20165;-73
2023/12/06 03:46:44;;;;;;;104.97;51.20;;;0.50;99.90;;;;;;2097646;28;20028;-73
2023/12/06 03:47:45;;;;;;;104.78;51.22;;;0.50;99.90;;;;;;2087640;28;20445;-73
2023/12/06 03:48:45;;;;;;;103.85;50.50;;;0.50;99.90;;;;;;2094722;28;20025;-73
2023/12/06 03:49:46;;;;;;;103.88;50.30;;;0.50;99.90;;;;;;2098341;28;20047;-73
2023/12/06 03:50:46;;;;;;;106.90;50.70;;;0.50;99.90;;;;;;2086812;28;20043;-73
2023/12/06 03:51:47;;;;;;;104.00;50.50;;;0.50;99.90;;;;;;2096977;28;20032;-73
2023/12/06 03:52:47;;;;;;;107.00;50.22;;;0.40;99.90;;;;;;2091871;28;20580;-73
2023/12/06 03:53:48;;;;;;;102.18;50.45;;;0.40;99.90;;;;;;2091684;28;20071;-74
2023/12/06 03:54:48;;;;;;;106.15;51.25;;;0.50;99.90;;;;;;2093824;28;20068;-73
2023/12/06 03:55:49;;;;;;;105.90;50.63;;;0.40;99.90;;;;;;2092506;28;20039;-73
2023/12/06 03:56:50;;;;;;;101.25;50.42;;;0.40;99.90;;;;;;2093007;28;20027;-73
2023/12/06 03:57:50;;;;;;;105.55;51.53;;;0.40;99.90;;;;;;2097379;28;20028;-74
2023/12/06 03:58:51;;;;;;;108.63;52.25;;;0.40;99.90;;;;;;2098209;28;20032;-74
2023/12/06 03:59:52;;;;;;;107.85;51.80;;;0.40;99.90;;;;;;2082435;28;20043;-73
2023/12/06 04:00:53;;;;;;;105.75;51.92;;;0.40;99.90;;;;;;2095846;28;20039;-73
2023/12/06 04:01:54;;;;;;;104.00;51.40;;;0.40;99.90;;;;;;2099264;28;20043;-72
2023/12/06 04:02:56;;;;;;;105.10;50.92;;;0.40;99.90;;;;;;2087374;28;20513;-72
2023/12/06 04:03:56;;;;;;;106.65;51.83;;;0.40;99.90;;;;;;2079587;28;20025;-72
2023/12/06 04:04:57;;;;;;;100.72;49.35;;;0.40;99.90;;;;;;2095501;28;20029;-73
2023/12/06 04:05:57;;;;;;;104.00;51.20;;;0.40;99.90;;;;;;2095848;28;20034;-73
2023/12/06 04:06:58;;;;;;;104.22;51.15;;;0.40;99.90;;;;;;2092132;28;20282;-73
2023/12/06 04:07:58;;;;;;;102.88;50.45;;;0.40;99.90;;;;;;2091261;28;20020;-73
2023/12/06 04:08:59;;;;;;;102.20;50.13;;;0.30;99.90;;;;;;2087814;28;20045;-73
2023/12/06 04:09:59;;;;;;;104.40;51.25;;;0.40;99.90;;;;;;2085558;28;20501;-73
2023/12/06 04:11:00;;;;;;;103.65;50.38;;;0.30;99.90;;;;;;2075241;28;20033;-72
2023/12/06 04:12:01;;;;;;;103.20;50.33;;;0.30;99.90;;;;;;2087903;28;20028;-74
2023/12/06 04:13:02;;;;;;;102.20;50.30;;;0.40;99.90;;;;;;2090941;28;20012;-72
2023/12/06 04:14:03;;;;;;;105.65;51.00;;;0.40;99.90;;;;;;2092219;28;20394;-72
2023/12/06 04:15:04;;;;;;;103.28;50.05;;;0.40;99.90;;;;;;2092361;28;20063;-72
2023/12/06 04:16:04;;;;;;;102.53;50.33;;;0.40;99.90;;;;;;2084848;28;20025;-72
2023/12/06 04:17:05;;;;;;;104.13;49.92;;;0.40;99.90;;;;;;2086834;28;20520;-73
2023/12/06 04:18:06;;;;;;;107.30;51.05;;;0.40;99.90;;;;;;2084550;28;20039;-72
2023/12/06 04:19:06;;;;;;;104.22;50.90;;;0.30;99.90;;;;;;2098300;28;20172;-72
2023/12/06 04:20:08;;;;;;;99.18;48.92;;;0.30;99.90;;;;;;2096598;28;20036;-72
2023/12/06 04:21:08;;;;;;;101.68;49.83;;;0.30;99.90;;;;;;2084878;28;20033;-73
2023/12/06 04:22:09;;;;;;;105.10;50.55;;;0.30;99.90;;;;;;2077036;28;20595;-72
2023/12/06 04:23:10;;;;;;;104.35;50.58;;;0.30;99.90;;;;;;2080126;28;20021;-73
2023/12/06 04:24:10;;;;;;;102.97;50.10;;;0.30;99.90;;;;;;2089047;28;20442;-72
2023/12/06 04:25:14;;;;;;;104.40;49.80;;;0.30;99.90;;;;;;2094439;28;20035;-72
2023/12/06 04:26:14;;;;;;;108.90;51.70;;;0.30;99.90;;;;;;2092291;28;20100;-74
2023/12/06 04:27:15;;;;;;;103.75;50.70;;;0.30;99.90;;;;;;2092811;28;20527;-72
2023/12/06 04:28:16;;;;;;;102.57;50.40;;;0.30;99.90;;;;;;2083431;28;20858;-72
2023/12/06 04:29:16;;;;;;;105.63;51.00;;;0.30;99.90;;;;;;2083588;28;20036;-72
2023/12/06 04:30:17;;;;;;;103.05;50.28;;;0.30;99.90;;;;;;2087215;28;20036;-73
2023/12/06 04:31:17;;;;;;;107.70;50.65;;;0.30;99.90;;;;;;2091808;28;20027;-72
2023/12/06 04:32:18;;;;;;;100.82;50.08;;;0.30;99.90;;;;;;2088459;28;20032;-72
2023/12/06 04:33:18;;;;;;;106.18;50.10;;;0.30;99.90;;;;;;2094617;28;20030;-72
2023/12/06 04:34:19;;;;;;;97.47;48.85;;;0.30;99.90;;;;;;2093100;28;20050;-72
2023/12/06 04:35:20;;;;;;;105.50;50.10;;;0.30;99.90;;;;;;2097015;28;20051;-72
2023/12/06 04:36:21;;;;;;;104.03;50.08;;;0.30;99.90;;;;;;2094087;28;20024;-73
2023/12/06 04:37:22;;;;;;;104.72;50.40;;;0.30;99.90;;;;;;2095124;28;20032;-72
2023/12/06 04:38:23;;;;;;;105.70;51.03;;;0.40;99.90;;;;;;2094632;28;20340;-72
2023/12/06 04:39:23;;;;;;;99.50;49.60;;;0.40;99.90;;;;;;2085260;28;20123;-72
2023/12/06 04:40:24;;;;;;;100.88;49.33;;;0.40;99.90;;;;;;2095101;28;20026;-72
2023/12/06 04:41:24;;;;;;;102.68;49.45;;;0.30;99.90;;;;;;2094576;28;20043;-72
2023/12/06 04:42:25;;;;;;;101.43;50.03;;;0.40;99.90;;;;;;2094601;28;20032;-73
2023/12/06 04:43:25;;;;;;;101.60;49.20;;;0.40;99.90;;;;;;2089931;28;20025;-72
2023/12/06 04:44:26;;;;;;;99.82;49.00;;;0.40;99.90;;;;;;2091723;28;20027;-72
2023/12/06 04:45:26;;;;;;;105.13;50.97;;;0.40;99.90;;;;;;2091168;28;20033;-72
2023/12/06 04:46:27;;;;;;;106.22;50.50;;;0.40;99.90;;;;;;2080595;28;20122;-72
2023/12/06 04:47:28;;;;;;;105.95;50.22;;;0.50;99.90;;;;;;2084548;28;20041;-72
2023/12/06 04:48:28;;;;;;;104.88;50.50;;;0.50;99.90;;;;;;2082079;28;20461;-72
2023/12/06 04:49:29;;;;;;;102.35;49.30;;;0.50;99.90;;;;;;2087381;28;20048;-73
2023/12/06 04:50:29;;;;;;;102.28;48.08;;;0.50;99.90;;;;;;2095987;28;20058;-72
2023/12/06 04:51:30;;;;;;;102.30;49.38;;;0.50;99.90;;;;;;2086439;28;20487;-72
2023/12/06 04:52:31;;;;;;;102.30;49.78;;;0.50;99.90;;;;;;2088219;28;20464;-72
2023/12/06 04:53:32;;;;;;;101.13;49.10;;;0.50;99.90;;;;;;2086398;28;20506;-72
2023/12/06 04:54:32;;;;;;;103.78;49.65;;;0.50;99.90;;;;;;2086791;28;20052;-72
2023/12/06 04:55:33;;;;;;;103.45;49.20;;;0.50;99.90;;;;;;2086321;28;20090;-73
2023/12/06 04:56:33;;;;;;;97.70;48.22;;;0.50;99.90;;;;;;2092580;28;20086;-73
2023/12/06 04:57:34;;;;;;;101.35;49.58;;;0.50;99.90;;;;;;2094966;28;20212;-73
2023/12/06 04:58:35;;;;;;;103.60;49.67;;;0.60;99.90;;;;;;2084280;28;20021;-72
2023/12/06 04:59:35;;;;;;;99.70;48.38;;;0.50;99.90;;;;;;2079876;28;20253;-72
2023/12/06 05:00:36;;;;;;;99.03;48.63;;;0.50;99.90;;;;;;2085388;28;20033;-72
2023/12/06 05:01:37;;;;;;;103.50;50.40;;;0.50;99.90;;;;;;2093712;28;20790;-72
2023/12/06 05:02:37;;;;;;;98.00;47.42;;;0.60;99.90;;;;;;2085272;28;20040;-73
2023/12/06 05:03:38;;;;;;;105.60;49.88;;;0.60;99.90;;;;;;2088570;28;20036;-72
2023/12/06 05:04:38;;;;;;;104.10;49.05;;;0.60;99.90;;;;;;2097048;28;20126;-72
2023/12/06 05:05:39;;;;;;;101.20;49.83;;;0.60;99.90;;;;;;2068709;28;20025;-72
2023/12/06 05:06:40;;;;;;;101.57;48.55;;;0.60;99.90;;;;;;2076752;28;20101;-73
2023/12/06 05:07:40;;;;;;;101.00;49.35;;;0.50;99.90;;;;;;2088415;28;20170;-73
2023/12/06 05:08:41;;;;;;;99.03;47.88;;;0.60;99.90;;;;;;2089385;28;20024;-73